createdAt,value
2024-02-02T00:01:49.696Z,15.32
2024-02-02T00:04:17.937Z,13.15
2024-02-02T00:06:46.652Z,13.00
2024-02-02T00:09:16.607Z,10.43
2024-02-02T00:11:45.334Z,13.63
2024-02-02T00:14:13.780Z,12.93
2024-02-02T00:16:42.323Z,10.93
2024-02-02T00:19:12.469Z,13.13
2024-02-02T00:21:41.237Z,9.70
2024-02-02T00:24:10.140Z,11.68
2024-02-02T00:26:38.517Z,11.82
2024-02-02T00:29:06.954Z,10.85
2024-02-02T00:31:36.324Z,11.60
2024-02-02T00:34:04.793Z,10.02
2024-02-02T00:36:34.666Z,8.63
2024-02-02T00:39:03.120Z,11.15
2024-02-02T00:41:31.518Z,12.23
2024-02-02T00:43:59.894Z,8.52
2024-02-02T00:46:29.959Z,9.13
2024-02-02T00:48:58.248Z,10.55
2024-02-02T00:51:26.758Z,11.00
2024-02-02T00:53:56.507Z,8.90
2024-02-02T00:56:26.019Z,11.90
2024-02-02T00:58:54.481Z,9.98
2024-02-02T01:01:22.771Z,9.75
2024-02-02T01:03:52.978Z,10.70
2024-02-02T01:06:21.287Z,10.82
2024-02-02T01:08:49.784Z,12.13
2024-02-02T01:11:20.789Z,8.90
2024-02-02T01:13:49.103Z,11.82
2024-02-02T01:16:17.695Z,9.98
2024-02-02T01:18:46.429Z,9.10
2024-02-02T01:21:15.093Z,10.10
2024-02-02T01:23:43.504Z,10.80
2024-02-02T01:26:12.493Z,7.00
2024-02-02T01:28:43.625Z,10.55
2024-02-02T01:31:11.992Z,7.63
2024-02-02T01:33:40.490Z,7.55
2024-02-02T01:36:09.080Z,8.98
2024-02-02T01:38:37.373Z,9.32
2024-02-02T01:41:06.448Z,7.60
2024-02-02T01:43:34.649Z,7.15
2024-02-02T01:46:05.054Z,6.60
2024-02-02T01:48:33.506Z,8.00
2024-02-02T01:51:01.812Z,9.20
2024-02-02T01:53:30.065Z,9.23
2024-02-02T01:55:58.352Z,8.77
2024-02-02T01:58:27.365Z,10.57
2024-02-02T02:00:55.881Z,9.52
2024-02-02T02:03:25.867Z,5.78
2024-02-02T02:05:54.516Z,7.15
2024-02-02T02:08:22.907Z,7.32
2024-02-02T02:10:51.445Z,6.63
2024-02-02T02:13:20.615Z,6.38
2024-02-02T02:15:49.191Z,5.65
2024-02-02T02:18:17.785Z,6.85
2024-02-02T02:20:50.259Z,5.93
2024-02-02T02:23:19.989Z,8.27
2024-02-02T02:25:48.483Z,5.72
2024-02-02T02:28:19.616Z,4.88
2024-02-02T02:30:48.708Z,5.20
2024-02-02T02:33:17.379Z,6.72
2024-02-02T02:35:45.981Z,5.28
2024-02-02T02:38:14.315Z,4.47
2024-02-02T02:40:44.593Z,5.45
2024-02-02T02:43:12.848Z,5.65
2024-02-02T02:45:41.920Z,5.90
2024-02-02T02:48:10.577Z,4.20
2024-02-02T02:50:39.300Z,5.28
2024-02-02T02:53:08.293Z,5.07
2024-02-02T02:55:36.891Z,4.53
2024-02-02T02:58:06.731Z,3.92
2024-02-02T03:00:35.167Z,4.63
2024-02-02T03:03:03.620Z,4.15
2024-02-02T03:05:31.335Z,4.05
2024-02-02T03:07:59.459Z,3.60
2024-02-02T03:10:27.975Z,4.65
2024-02-02T03:12:56.776Z,4.30
2024-02-02T03:15:26.982Z,5.93
2024-02-02T03:17:55.544Z,5.05
2024-02-02T03:20:27.911Z,7.10
2024-02-02T03:22:56.690Z,6.10
2024-02-02T03:25:26.514Z,6.38
2024-02-02T03:27:54.829Z,5.93
2024-02-02T03:30:22.988Z,5.55
2024-02-02T03:32:52.952Z,5.60
2024-02-02T03:35:21.495Z,4.90
2024-02-02T03:37:50.044Z,4.15
2024-02-02T03:40:18.509Z,4.30
2024-02-02T03:42:46.675Z,4.68
2024-02-02T03:45:16.399Z,4.10
2024-02-02T03:47:47.762Z,5.65
2024-02-02T03:50:19.155Z,4.72
2024-02-02T03:52:57.867Z,4.95
2024-02-02T03:55:27.199Z,5.20
2024-02-02T03:57:57.930Z,4.57
2024-02-02T04:00:26.178Z,4.88
2024-02-02T04:02:55.709Z,4.10
2024-02-02T04:05:25.609Z,3.97
2024-02-02T04:07:54.136Z,3.10
2024-02-02T04:10:22.427Z,3.30
2024-02-02T04:12:51.288Z,3.17
2024-02-02T04:15:19.622Z,3.65
2024-02-02T04:17:48.481Z,4.53
2024-02-02T04:20:18.096Z,2.13
2024-02-02T04:22:50.207Z,2.30
2024-02-02T04:25:24.483Z,2.30
2024-02-02T04:27:53.972Z,2.75
2024-02-02T04:30:23.931Z,2.50
2024-02-02T04:32:54.283Z,2.20
2024-02-02T04:35:31.253Z,2.20
2024-02-02T04:38:02.177Z,2.72
2024-02-02T04:40:30.550Z,2.85
2024-02-02T04:43:01.017Z,1.90
2024-02-02T04:45:31.565Z,2.05
2024-02-02T04:48:01.311Z,2.15
2024-02-02T04:50:30.979Z,1.27
2024-02-02T04:53:04.993Z,1.10
2024-02-02T04:55:33.357Z,1.48
2024-02-02T04:58:01.858Z,1.30
2024-02-02T05:00:30.186Z,1.02
2024-02-02T05:02:58.700Z,0.95
2024-02-02T05:05:27.232Z,1.77
2024-02-02T05:07:55.693Z,1.48
2024-02-02T05:10:25.338Z,0.85
2024-02-02T05:12:53.695Z,0.95
2024-02-02T05:15:22.119Z,1.25
2024-02-02T05:17:50.280Z,1.77
2024-02-02T05:20:18.475Z,1.52
2024-02-02T05:22:46.835Z,1.45
2024-02-02T05:25:15.587Z,1.77
2024-02-02T05:27:45.767Z,1.83
2024-02-02T05:30:14.473Z,1.20
2024-02-02T05:32:43.186Z,0.80
2024-02-02T05:35:11.653Z,2.28
2024-02-02T05:37:40.134Z,1.88
2024-02-02T05:40:09.601Z,2.38
2024-02-02T05:42:38.176Z,1.30
2024-02-02T05:45:08.709Z,1.73
2024-02-02T05:47:37.064Z,1.02
2024-02-02T05:50:05.683Z,0.70
2024-02-02T05:52:34.078Z,0.85
2024-02-02T05:55:02.561Z,2.40
2024-02-02T05:57:30.784Z,0.80
2024-02-02T05:59:59.059Z,0.90
2024-02-02T06:02:29.070Z,0.93
2024-02-02T06:04:57.581Z,0.88
2024-02-02T06:07:26.115Z,1.67
2024-02-02T06:09:54.601Z,0.88
2024-02-02T06:12:22.820Z,0.45
2024-02-02T06:14:51.320Z,3.10
2024-02-02T06:17:19.596Z,1.15
2024-02-02T06:19:49.574Z,0.95
2024-02-02T06:22:21.404Z,0.75
2024-02-02T06:24:49.627Z,2.22
2024-02-02T06:27:18.153Z,4.35
2024-02-02T06:29:46.321Z,1.40
2024-02-02T06:32:14.726Z,3.88
2024-02-02T06:34:43.355Z,1.98
2024-02-02T06:37:13.133Z,2.35
2024-02-02T06:39:41.335Z,2.08
2024-02-02T06:42:09.952Z,2.10
2024-02-02T06:44:38.100Z,0.80
2024-02-02T06:47:06.657Z,1.33
2024-02-02T06:49:34.975Z,0.60
2024-02-02T06:52:03.238Z,2.85
2024-02-02T06:54:33.255Z,1.05
2024-02-02T06:57:01.607Z,1.23
2024-02-02T06:59:30.261Z,1.45
2024-02-02T07:01:59.182Z,2.88
2024-02-02T07:04:28.547Z,0.90
2024-02-02T07:06:56.844Z,1.38
2024-02-02T07:09:28.174Z,0.95
2024-02-02T07:12:00.767Z,2.53
2024-02-02T07:14:38.391Z,1.38
2024-02-02T07:17:14.483Z,2.15
2024-02-02T07:19:44.368Z,1.40
2024-02-02T07:22:22.924Z,3.00
2024-02-02T07:24:51.567Z,1.38
2024-02-02T07:27:34.615Z,2.05
2024-02-02T07:30:03.065Z,1.75
2024-02-02T07:32:31.974Z,2.35
2024-02-02T07:35:00.222Z,0.82
2024-02-02T07:37:36.030Z,1.13
2024-02-02T07:40:06.145Z,1.30
2024-02-02T07:42:47.656Z,0.95
2024-02-02T07:45:16.865Z,2.35
2024-02-02T07:47:46.065Z,3.42
2024-02-02T07:50:14.325Z,1.85
2024-02-02T07:52:43.767Z,2.15
2024-02-02T07:55:12.061Z,2.45
2024-02-02T07:57:41.882Z,2.70
2024-02-02T08:00:10.797Z,4.75
2024-02-02T08:02:39.050Z,1.17
2024-02-02T08:05:09.556Z,3.30
2024-02-02T08:07:37.727Z,2.75
2024-02-02T08:10:08.701Z,4.30
2024-02-02T08:12:39.338Z,2.55
2024-02-02T08:15:10.472Z,2.08
2024-02-02T08:17:38.786Z,1.27
2024-02-02T08:20:08.005Z,2.13
2024-02-02T08:22:36.970Z,2.20
2024-02-02T08:25:05.943Z,3.42
2024-02-02T08:27:34.064Z,1.48
2024-02-02T08:30:02.618Z,2.47
2024-02-02T08:32:34.654Z,1.85
2024-02-02T08:35:04.293Z,2.67
2024-02-02T08:37:35.283Z,1.42
2024-02-02T08:40:03.562Z,1.95
2024-02-02T08:42:33.108Z,1.13
2024-02-02T08:45:02.448Z,2.63
2024-02-02T08:47:36.185Z,2.15
2024-02-02T08:50:06.148Z,1.00
2024-02-02T08:52:35.716Z,1.83
2024-02-02T08:55:08.055Z,2.05
2024-02-02T08:57:37.024Z,2.33
2024-02-02T09:00:16.855Z,2.33
2024-02-02T09:03:06.504Z,1.02
2024-02-02T09:05:49.256Z,3.97
2024-02-02T09:08:28.070Z,1.15
2024-02-02T09:11:20.770Z,2.55
2024-02-02T09:13:49.713Z,2.78
2024-02-02T09:16:18.786Z,3.20
2024-02-02T09:18:55.752Z,4.28
2024-02-02T09:21:32.958Z,1.30
2024-02-02T09:24:01.967Z,0.90
2024-02-02T09:26:38.425Z,1.75
2024-02-02T09:29:06.724Z,2.85
2024-02-02T09:31:39.022Z,3.00
2024-02-02T09:34:10.778Z,1.77
2024-02-02T09:36:42.009Z,0.73
2024-02-02T09:39:26.233Z,3.13
2024-02-02T09:42:05.630Z,1.98
2024-02-02T09:44:51.489Z,1.13
2024-02-02T09:47:25.705Z,2.35
2024-02-02T09:50:04.616Z,2.28
2024-02-02T09:52:40.915Z,0.98
2024-02-02T09:55:15.340Z,1.55
2024-02-02T09:57:47.598Z,2.10
2024-02-02T10:00:18.290Z,2.75
2024-02-02T10:02:54.421Z,1.38
2024-02-02T10:05:29.770Z,0.73
2024-02-02T10:08:09.113Z,0.95
2024-02-02T10:10:52.289Z,6.90
2024-02-02T10:13:26.653Z,3.00
2024-02-02T10:16:02.954Z,1.42
2024-02-02T10:18:52.696Z,0.98
2024-02-02T10:21:30.371Z,0.88
2024-02-02T10:24:15.576Z,2.28
2024-02-02T10:26:58.407Z,1.30
2024-02-02T10:29:31.589Z,1.88
2024-02-02T10:32:10.143Z,1.52
2024-02-02T10:34:47.246Z,0.70
2024-02-02T10:37:25.517Z,1.17
2024-02-02T10:40:02.448Z,0.43
2024-02-02T10:42:37.157Z,0.85
2024-02-02T10:45:10.131Z,1.98
2024-02-02T10:47:45.107Z,0.90
2024-02-02T10:50:20.956Z,1.05
2024-02-02T10:53:00.746Z,0.47
2024-02-02T10:55:40.279Z,0.40
2024-02-02T10:58:15.978Z,0.73
2024-02-02T11:00:47.946Z,0.63
2024-02-02T11:03:23.443Z,1.10
2024-02-02T11:05:55.443Z,0.90
2024-02-02T11:08:24.807Z,1.65
2024-02-02T11:10:58.882Z,2.05
2024-02-02T11:13:33.173Z,0.75
2024-02-02T11:16:09.409Z,1.35
2024-02-02T11:18:46.226Z,3.08
2024-02-02T11:21:24.281Z,0.95
2024-02-02T11:23:57.754Z,0.68
2024-02-02T11:26:29.081Z,1.42
2024-02-02T11:29:05.874Z,3.50
2024-02-02T11:31:39.738Z,0.30
2024-02-02T11:34:14.749Z,0.68
2024-02-02T11:36:52.345Z,0.50
2024-02-02T11:39:26.595Z,0.57
2024-02-02T11:41:56.436Z,0.63
2024-02-02T11:44:25.522Z,1.20
2024-02-02T11:46:54.874Z,1.60
2024-02-02T11:49:25.577Z,2.30
2024-02-02T11:51:55.613Z,4.32
2024-02-02T11:54:27.660Z,1.80
2024-02-02T11:56:59.264Z,0.80
2024-02-02T11:59:28.981Z,1.05
2024-02-02T12:02:04.532Z,1.92
2024-02-02T12:04:39.425Z,0.40
2024-02-02T12:07:14.050Z,0.60
2024-02-02T12:09:44.903Z,1.70
2024-02-02T12:12:17.600Z,1.58
2024-02-02T12:14:49.201Z,0.35
2024-02-02T12:17:19.203Z,0.45
2024-02-02T12:19:48.450Z,1.02
2024-02-02T12:22:16.979Z,0.63
2024-02-02T12:24:45.565Z,0.80
2024-02-02T12:27:16.055Z,0.50
2024-02-02T12:29:44.648Z,2.50
2024-02-02T12:32:14.811Z,5.32
2024-02-02T12:34:44.002Z,0.47
2024-02-02T12:37:12.184Z,0.90
2024-02-02T12:39:40.877Z,0.77
2024-02-02T12:42:10.273Z,6.70
2024-02-02T12:44:40.121Z,4.22
2024-02-02T12:47:08.563Z,1.27
2024-02-02T12:49:38.659Z,2.38
2024-02-02T12:52:07.916Z,0.90
2024-02-02T12:54:36.604Z,0.98
2024-02-02T12:57:06.370Z,1.30
2024-02-02T12:59:34.779Z,2.00
2024-02-02T13:02:06.536Z,2.28
2024-02-02T13:04:36.182Z,0.73
2024-02-02T13:07:05.918Z,1.50
2024-02-02T13:09:34.739Z,1.65
2024-02-02T13:12:03.896Z,0.98
2024-02-02T13:14:33.383Z,0.73
2024-02-02T13:17:08.114Z,1.65
2024-02-02T13:19:40.866Z,1.65
2024-02-02T13:22:19.208Z,1.05
2024-02-02T13:24:49.022Z,1.08
2024-02-02T13:27:23.347Z,0.98
2024-02-02T13:29:54.497Z,1.10
2024-02-02T13:32:26.358Z,1.58
2024-02-02T13:34:56.437Z,1.55
2024-02-02T13:37:38.254Z,1.15
2024-02-02T13:40:11.358Z,1.48
2024-02-02T13:42:41.072Z,1.33
2024-02-02T13:45:12.183Z,1.02
2024-02-02T13:47:43.543Z,2.58
2024-02-02T13:50:17.641Z,2.80
2024-02-02T13:52:51.288Z,2.45
2024-02-02T13:55:22.174Z,2.88
2024-02-02T13:57:50.843Z,1.85
2024-02-02T14:00:19.820Z,0.65
2024-02-02T14:02:49.687Z,0.80
2024-02-02T14:05:18.378Z,0.80
2024-02-02T14:07:56.087Z,2.30
2024-02-02T14:10:24.365Z,0.77
2024-02-02T14:12:53.055Z,9.35
2024-02-02T14:15:23.731Z,3.33
2024-02-02T14:18:01.793Z,1.35
2024-02-02T14:20:30.081Z,1.70
2024-02-02T14:22:58.239Z,1.13
2024-02-02T14:25:30.925Z,2.20
2024-02-02T14:27:59.410Z,2.30
2024-02-02T14:30:29.742Z,2.83
2024-02-02T14:33:09.894Z,7.50
2024-02-02T14:35:46.143Z,1.85
2024-02-02T14:38:14.348Z,2.42
2024-02-02T14:40:42.487Z,0.95
2024-02-02T14:43:11.309Z,0.98
2024-02-02T14:45:39.770Z,1.17
2024-02-02T14:48:12.701Z,1.23
2024-02-02T14:50:41.149Z,1.38
2024-02-02T14:53:09.424Z,1.90
2024-02-02T14:55:37.745Z,0.63
2024-02-02T14:58:06.930Z,7.93
2024-02-02T15:00:42.450Z,2.80
2024-02-02T15:03:12.721Z,11.82
2024-02-02T15:05:41.745Z,2.13
2024-02-02T15:08:11.718Z,5.65
2024-02-02T15:10:42.416Z,15.27
2024-02-02T15:13:13.413Z,7.30
2024-02-02T15:15:49.566Z,4.50
2024-02-02T15:18:23.574Z,4.22
2024-02-02T15:20:51.781Z,6.03
2024-02-02T15:23:21.940Z,3.00
2024-02-02T15:25:50.244Z,5.60
2024-02-02T15:28:18.453Z,4.10
2024-02-02T15:30:47.162Z,5.22
2024-02-02T15:33:15.520Z,2.90
2024-02-02T15:35:46.499Z,6.93
2024-02-02T15:38:16.792Z,2.70
2024-02-02T15:40:45.571Z,3.60
2024-02-02T15:43:14.336Z,3.63
2024-02-02T15:45:43.571Z,3.20
2024-02-02T15:48:15.127Z,5.72
2024-02-02T15:50:47.469Z,9.95
2024-02-02T15:53:18.607Z,5.18
2024-02-02T15:55:47.898Z,7.80
2024-02-02T15:58:16.299Z,2.90
2024-02-02T16:00:44.760Z,5.13
2024-02-02T16:03:13.318Z,12.15
2024-02-02T16:05:44.413Z,4.60
2024-02-02T16:08:14.791Z,5.75
2024-02-02T16:10:46.495Z,5.30
2024-02-02T16:13:14.850Z,5.47
2024-02-02T16:15:43.349Z,4.35
2024-02-02T16:18:11.766Z,4.40
2024-02-02T16:20:40.791Z,9.88
2024-02-02T16:23:14.894Z,4.72
2024-02-02T16:25:44.937Z,4.53
2024-02-02T16:28:15.381Z,8.57
2024-02-02T16:30:44.588Z,7.93
2024-02-02T16:33:13.696Z,5.05
2024-02-02T16:35:41.897Z,4.53
2024-02-02T16:38:11.446Z,12.10
2024-02-02T16:40:39.912Z,8.40
2024-02-02T16:43:09.771Z,7.05
2024-02-02T16:45:38.403Z,10.93
2024-02-02T16:48:07.261Z,4.80
2024-02-02T16:50:38.469Z,6.82
2024-02-02T16:53:08.347Z,10.25
2024-02-02T16:55:37.929Z,7.80
2024-02-02T16:58:06.415Z,8.95
2024-02-02T17:00:36.221Z,7.80
2024-02-02T17:03:04.808Z,5.90
2024-02-02T17:05:34.142Z,8.52
2024-02-02T17:08:05.030Z,11.80
2024-02-02T17:10:33.460Z,7.22
2024-02-02T17:13:02.281Z,4.28
2024-02-02T17:15:30.871Z,9.68
2024-02-02T17:18:00.780Z,10.65
2024-02-02T17:20:29.354Z,8.57
2024-02-02T17:22:57.595Z,10.02
2024-02-02T17:25:26.947Z,9.13
2024-02-02T17:27:55.298Z,7.20
2024-02-02T17:30:23.757Z,6.72
2024-02-02T17:32:52.016Z,7.93
2024-02-02T17:35:23.311Z,6.75
2024-02-02T17:37:53.141Z,8.40
2024-02-02T17:40:22.764Z,7.75
2024-02-02T17:42:53.800Z,4.93
2024-02-02T17:45:22.152Z,6.68
2024-02-02T17:47:51.640Z,10.07
2024-02-02T17:50:20.125Z,11.40
2024-02-02T17:52:49.931Z,12.48
2024-02-02T17:55:21.331Z,20.02
2024-02-02T17:57:49.582Z,13.82
2024-02-02T18:00:18.417Z,9.27
2024-02-02T18:02:48.717Z,10.10
2024-02-02T18:05:18.649Z,9.18
2024-02-02T18:07:48.279Z,10.52
2024-02-02T18:10:22.507Z,9.43
2024-02-02T18:12:52.408Z,7.30
2024-02-02T18:15:21.521Z,5.80
2024-02-02T18:17:49.863Z,6.65
2024-02-02T18:20:20.314Z,7.60
2024-02-02T18:22:51.671Z,7.28
2024-02-02T18:25:22.898Z,9.63
2024-02-02T18:27:54.458Z,10.93
2024-02-02T18:30:24.835Z,8.73
2024-02-02T18:32:53.266Z,9.00
2024-02-02T18:35:23.931Z,6.60
2024-02-02T18:37:55.026Z,6.25
2024-02-02T18:40:27.556Z,8.07
2024-02-02T18:42:56.043Z,9.40
2024-02-02T18:45:24.383Z,8.55
2024-02-02T18:47:53.558Z,6.15
2024-02-02T18:50:21.876Z,9.85
2024-02-02T18:52:50.803Z,11.20
2024-02-02T18:55:19.420Z,13.93
2024-02-02T18:57:49.382Z,10.25
2024-02-02T19:00:18.466Z,7.28
2024-02-02T19:02:48.125Z,7.20
2024-02-02T19:05:16.705Z,11.13
2024-02-02T19:07:45.189Z,6.30
2024-02-02T19:10:15.551Z,7.85
2024-02-02T19:12:44.024Z,9.07
2024-02-02T19:15:13.866Z,10.95
2024-02-02T19:17:43.973Z,9.45
2024-02-02T19:20:13.294Z,7.78
2024-02-02T19:22:42.667Z,8.02
2024-02-02T19:25:11.280Z,11.18
2024-02-02T19:27:40.834Z,11.38
2024-02-02T19:30:13.545Z,11.45
2024-02-02T19:32:43.983Z,7.95
2024-02-02T19:35:13.615Z,7.03
2024-02-02T19:37:41.943Z,8.80
2024-02-02T19:40:11.644Z,7.20
2024-02-02T19:42:42.843Z,9.27
2024-02-02T19:45:11.655Z,8.90
2024-02-02T19:47:40.287Z,8.30
2024-02-02T19:50:13.194Z,9.13
2024-02-02T19:52:41.314Z,12.40
2024-02-02T19:55:10.105Z,7.03
2024-02-02T19:57:38.286Z,6.22
2024-02-02T20:00:08.506Z,6.43
2024-02-02T20:02:36.829Z,9.73
2024-02-02T20:05:05.152Z,7.40
2024-02-02T20:07:35.509Z,8.38
2024-02-02T20:10:05.059Z,6.10
2024-02-02T20:12:35.268Z,7.78
2024-02-02T20:15:03.775Z,4.50
2024-02-02T20:17:32.024Z,5.90
2024-02-02T20:20:01.625Z,5.30
2024-02-02T20:22:30.117Z,5.88
2024-02-02T20:25:00.942Z,6.95
2024-02-02T20:27:36.634Z,4.85
2024-02-02T20:30:14.462Z,5.43
2024-02-02T20:32:53.955Z,6.78
2024-02-02T20:35:30.810Z,3.35
2024-02-02T20:38:06.555Z,6.55
2024-02-02T20:40:45.700Z,5.68
2024-02-02T20:43:22.309Z,4.80
2024-02-02T20:45:52.411Z,7.20
2024-02-02T20:48:25.247Z,8.18
2024-02-02T20:50:54.141Z,5.18
2024-02-02T20:53:23.255Z,4.10
2024-02-02T20:55:52.937Z,4.20
2024-02-02T20:58:21.149Z,7.05
2024-02-02T21:00:49.536Z,3.65
2024-02-02T21:03:19.506Z,4.13
2024-02-02T21:05:59.956Z,6.72
2024-02-02T21:08:31.430Z,6.45
2024-02-02T21:11:01.426Z,5.72
2024-02-02T21:13:32.870Z,3.38
2024-02-02T21:16:11.828Z,4.50
2024-02-02T21:18:42.228Z,3.97
2024-02-02T21:21:22.441Z,5.90
2024-02-02T21:23:52.243Z,5.80
2024-02-02T21:26:21.880Z,4.32
2024-02-02T21:28:52.973Z,4.50
2024-02-02T21:31:21.120Z,2.97
2024-02-02T21:33:50.834Z,3.42
2024-02-02T21:36:21.279Z,3.67
2024-02-02T21:38:50.633Z,6.22
2024-02-02T21:41:27.571Z,4.43
2024-02-02T21:44:02.397Z,2.60
2024-02-02T21:46:31.155Z,2.95
2024-02-02T21:49:06.439Z,2.88
2024-02-02T21:51:36.698Z,2.17
2024-02-02T21:54:09.635Z,4.20
2024-02-02T21:56:45.470Z,2.92
2024-02-02T21:59:18.567Z,2.28
2024-02-02T22:01:46.899Z,3.88
2024-02-02T22:04:16.427Z,4.22
2024-02-02T22:06:45.851Z,3.95
2024-02-02T22:09:16.190Z,2.42
2024-02-02T22:11:45.997Z,4.20
2024-02-02T22:14:18.928Z,4.93
2024-02-02T22:16:47.052Z,4.82
2024-02-02T22:19:15.620Z,4.80
2024-02-02T22:21:45.228Z,3.00
2024-02-02T22:24:14.803Z,4.18
2024-02-02T22:26:45.466Z,4.43
2024-02-02T22:29:13.682Z,4.43
2024-02-02T22:31:43.439Z,5.97
2024-02-02T22:34:12.952Z,3.65
2024-02-02T22:36:41.637Z,3.58
2024-02-02T22:39:11.002Z,6.20
2024-02-02T22:41:39.407Z,6.55
2024-02-02T22:44:09.213Z,3.35
2024-02-02T22:46:37.508Z,3.78
2024-02-02T22:49:59.915Z,5.80
2024-02-02T22:52:28.269Z,4.97
2024-02-02T22:54:56.879Z,3.67
2024-02-02T22:57:26.299Z,4.90
2024-02-02T23:00:07.017Z,4.85
2024-02-02T23:02:36.423Z,4.38
2024-02-02T23:05:04.808Z,8.85
2024-02-02T23:07:34.039Z,4.55
2024-02-02T23:10:02.238Z,8.13
2024-02-02T23:12:37.554Z,5.28
2024-02-02T23:15:10.413Z,6.15
2024-02-02T23:17:38.675Z,3.90
2024-02-02T23:20:08.167Z,4.90
2024-02-02T23:22:41.613Z,7.80
2024-02-02T23:25:10.478Z,8.40
2024-02-02T23:27:42.990Z,6.13
2024-02-02T23:30:32.567Z,4.78
2024-02-02T23:33:02.290Z,5.20
2024-02-02T23:35:31.223Z,5.28
2024-02-02T23:37:59.439Z,4.75
2024-02-02T23:40:29.002Z,7.82
2024-02-02T23:42:57.609Z,9.88
2024-02-02T23:45:27.755Z,4.53
2024-02-02T23:47:57.329Z,8.02
2024-02-02T23:50:28.255Z,3.85
2024-02-02T23:52:57.358Z,8.30
2024-02-02T23:55:25.935Z,6.28
2024-02-02T23:57:56.176Z,5.05
